Greenwood, Indiana
Current Conditions -  °F | °C
As of 5:54 AM on Friday 24 Oct 2014 (Local Time) from KIND Reporting Station
Few Clouds Few Clouds  
Wind Chill: 43°   Ceiling: Unl
Heat Index: 43°   Visibility: 10mi
Dew Point: 39°   Wind: 0mph
Humidity: 86%   Direction: NA
Pressure: 30.1"   Gusts: NA
Location:  39.61°N, 86.11°W
Report Text: KIND 240954Z 00000KT 10SM FEW150 06/04 A3010 RMK AO2 SLP196 T00610039
Loading
Personal Weather Stations






























Interactive Weather Map New forecast layout! Learn more

10-Day Weather Forecast

Advertisements
Track Severe Weather on mobile